This is the latest recevied weather packets stored in our database for station/object LRSM. If no packets are shown the sender has not sent any weather packets the latest 10 day(s).
| Time | Temp. | Humidity | Pressure | Rain* | Wind** | Luminosity | Snow |
|---|---|---|---|---|---|---|---|
| 1777635212 | 15° C | 27% | 1025 hPa | - | - | - | - |
| 1777634312 | 13.89° C | 29% | 1026 hPa | - | - | - | - |
| 1777633413 | 13.89° C | 29% | 1026 hPa | - | - | - | - |
| 1777632513 | 13.89° C | 27% | 1026 hPa | - | - | - | - |
| 1777631612 | 13.89° C | 27% | 1026 hPa | - | - | - | - |
| 1777630713 | 13.89° C | 27% | 1026 hPa | - | - | - | - |
| 1777629812 | 13.89° C | 27% | 1026 hPa | - | - | - | - |
| 1777628912 | 13.89° C | 27% | 1026 hPa | - | - | - | - |
| 1777628012 | 13.89° C | 27% | 1026 hPa | - | - | - | - |
| 1777627112 | 12.78° C | 26% | 1026 hPa | - | - | - | - |
| 1777626212 | 12.78° C | 26% | 1026 hPa | - | - | - | - |
| 1777625312 | 12.78° C | 28% | 1026 hPa | - | - | - | - |
| 1777624413 | 12.78° C | 28% | 1026 hPa | - | - | - | - |
| 1777623530 | 12.22° C | 28% | 1027 hPa | - | - | - | - |
| 1777622612 | 12.22° C | 28% | 1027 hPa | - | - | - | - |
| 1777621712 | 12.22° C | 35% | 1027 hPa | - | - | - | - |
| 1777620812 | 12.22° C | 35% | 1027 hPa | - | - | - | - |
| 1777619912 | 11.11° C | 35% | 1027 hPa | - | - | - | - |
| 1777619012 | 11.11° C | 35% | 1027 hPa | - | - | - | - |
| 1777618116 | 10° C | 35% | 1027 hPa | - | - | - | - |
| 1777617213 | 10° C | 35% | 1027 hPa | - | - | - | - |
| 1777616314 | 7.78° C | 46% | 1027 hPa | - | - | - | - |
| 1777615412 | 7.78° C | 46% | 1027 hPa | - | - | - | - |
| 1777614512 | 6.11° C | 49% | 1027 hPa | - | - | - | - |
| 1777613613 | 6.11° C | 49% | 1027 hPa | - | - | - | - |
* Rain since midnight (hover to see other rain measurements)
** Current wind speed in m/s (hover to see current wind gust speed)